Webcam Flughafen St.Gallen-Altenrhein

Live-Bilder und Zeitraffer LSZR / ACH.

 

Live aus Altenrhein
LIVE
LSZR 180250Z AUTO 26007KT 230V290 9999 BKN050 02/M02 Q1016
Zeitraffer heute
2019-01-18 00:14:42
LSZR 172250Z AUTO VRB01KT 9999 FEW037 BKN043 BKN060 02/M00 Q1014
Zeitraffer gestern
2019-01-17 00:14:37
LSZR 162250Z AUTO VRB03KT 9999 NCD M00/M01 Q1011
Zeitraffer vor 3 Tagen
2019-01-15 00:14:53
LSZR 142250Z AUTO 26008KT 9999 -RASN BKN/// 03/01 Q1020